sensor_id;sensor_type;location;lat;lon;timestamp;P1;durP1;ratioP1;P2;durP2;ratioP2
21810;SDS011;11067;48.788;9.208;2023-04-25T00:02:01;4.00;;;1.67;;
21810;SDS011;11067;48.788;9.208;2023-04-25T00:04:28;2.20;;;1.30;;
21810;SDS011;11067;48.788;9.208;2023-04-25T00:06:54;1.85;;;1.35;;
21810;SDS011;11067;48.788;9.208;2023-04-25T00:09:20;1.70;;;1.45;;
21810;SDS011;11067;48.788;9.208;2023-04-25T00:11:46;2.40;;;1.43;;
21810;SDS011;11067;48.788;9.208;2023-04-25T00:14:12;2.10;;;1.40;;
21810;SDS011;11067;48.788;9.208;2023-04-25T00:16:37;2.00;;;1.47;;
21810;SDS011;11067;48.788;9.208;2023-04-25T00:19:03;3.05;;;1.38;;
21810;SDS011;11067;48.788;9.208;2023-04-25T00:21:29;1.63;;;1.40;;
21810;SDS011;11067;48.788;9.208;2023-04-25T00:23:56;2.15;;;1.60;;
21810;SDS011;11067;48.788;9.208;2023-04-25T00:26:22;1.73;;;1.50;;
21810;SDS011;11067;48.788;9.208;2023-04-25T00:28:48;1.63;;;1.48;;
21810;SDS011;11067;48.788;9.208;2023-04-25T00:31:13;1.67;;;1.40;;
21810;SDS011;11067;48.788;9.208;2023-04-25T00:33:39;2.10;;;1.60;;
21810;SDS011;11067;48.788;9.208;2023-04-25T00:36:05;1.93;;;1.40;;
21810;SDS011;11067;48.788;9.208;2023-04-25T00:38:31;2.83;;;1.40;;
21810;SDS011;11067;48.788;9.208;2023-04-25T00:40:57;1.90;;;1.38;;
21810;SDS011;11067;48.788;9.208;2023-04-25T00:43:23;2.05;;;1.67;;
21810;SDS011;11067;48.788;9.208;2023-04-25T00:45:53;1.60;;;1.50;;
21810;SDS011;11067;48.788;9.208;2023-04-25T00:48:21;3.20;;;1.60;;
21810;SDS011;11067;48.788;9.208;2023-04-25T00:50:54;1.93;;;1.47;;
21810;SDS011;11067;48.788;9.208;2023-04-25T00:53:23;3.88;;;1.50;;
21810;SDS011;11067;48.788;9.208;2023-04-25T00:55:50;2.00;;;1.50;;
21810;SDS011;11067;48.788;9.208;2023-04-25T00:58:20;1.40;;;1.30;;
21810;SDS011;11067;48.788;9.208;2023-04-25T01:00:47;2.08;;;1.60;;
21810;SDS011;11067;48.788;9.208;2023-04-25T01:03:14;2.13;;;1.50;;
21810;SDS011;11067;48.788;9.208;2023-04-25T01:05:41;2.08;;;1.58;;
21810;SDS011;11067;48.788;9.208;2023-04-25T01:08:07;2.35;;;1.60;;
21810;SDS011;11067;48.788;9.208;2023-04-25T01:10:33;2.23;;;1.63;;
21810;SDS011;11067;48.788;9.208;2023-04-25T01:12:58;1.60;;;1.50;;
21810;SDS011;11067;48.788;9.208;2023-04-25T01:15:24;2.80;;;1.70;;
21810;SDS011;11067;48.788;9.208;2023-04-25T01:17:50;2.47;;;1.90;;
21810;SDS011;11067;48.788;9.208;2023-04-25T01:20:15;2.50;;;1.53;;
21810;SDS011;11067;48.788;9.208;2023-04-25T01:22:41;2.20;;;1.60;;
21810;SDS011;11067;48.788;9.208;2023-04-25T01:25:08;2.60;;;1.70;;
21810;SDS011;11067;48.788;9.208;2023-04-25T01:27:34;3.88;;;2.28;;
21810;SDS011;11067;48.788;9.208;2023-04-25T01:30:01;2.50;;;1.75;;
21810;SDS011;11067;48.788;9.208;2023-04-25T01:32:27;2.90;;;1.63;;
21810;SDS011;11067;48.788;9.208;2023-04-25T01:34:53;2.72;;;1.70;;
21810;SDS011;11067;48.788;9.208;2023-04-25T01:37:18;3.23;;;1.93;;
21810;SDS011;11067;48.788;9.208;2023-04-25T01:39:44;3.30;;;1.90;;
21810;SDS011;11067;48.788;9.208;2023-04-25T01:42:09;2.25;;;1.80;;
21810;SDS011;11067;48.788;9.208;2023-04-25T01:44:35;3.70;;;1.90;;
21810;SDS011;11067;48.788;9.208;2023-04-25T01:47:01;3.13;;;2.08;;
21810;SDS011;11067;48.788;9.208;2023-04-25T01:49:26;2.47;;;2.00;;
21810;SDS011;11067;48.788;9.208;2023-04-25T01:51:52;2.43;;;1.83;;
21810;SDS011;11067;48.788;9.208;2023-04-25T01:54:17;3.05;;;2.00;;
21810;SDS011;11067;48.788;9.208;2023-04-25T01:56:49;4.15;;;1.90;;
21810;SDS011;11067;48.788;9.208;2023-04-25T01:59:16;4.23;;;2.00;;
21810;SDS011;11067;48.788;9.208;2023-04-25T02:01:41;4.97;;;2.20;;
21810;SDS011;11067;48.788;9.208;2023-04-25T02:04:07;3.15;;;2.22;;
21810;SDS011;11067;48.788;9.208;2023-04-25T02:06:32;3.37;;;1.90;;
21810;SDS011;11067;48.788;9.208;2023-04-25T02:08:58;2.37;;;1.80;;
21810;SDS011;11067;48.788;9.208;2023-04-25T02:11:23;3.93;;;1.90;;
21810;SDS011;11067;48.788;9.208;2023-04-25T02:13:49;2.63;;;1.80;;
21810;SDS011;11067;48.788;9.208;2023-04-25T02:16:14;2.73;;;1.87;;
21810;SDS011;11067;48.788;9.208;2023-04-25T02:18:40;2.73;;;2.00;;
21810;SDS011;11067;48.788;9.208;2023-04-25T02:21:05;3.87;;;2.07;;
21810;SDS011;11067;48.788;9.208;2023-04-25T02:23:31;2.88;;;2.00;;
21810;SDS011;11067;48.788;9.208;2023-04-25T02:25:57;2.67;;;1.80;;
21810;SDS011;11067;48.788;9.208;2023-04-25T02:28:23;2.67;;;1.80;;
21810;SDS011;11067;48.788;9.208;2023-04-25T02:30:50;3.70;;;1.77;;
21810;SDS011;11067;48.788;9.208;2023-04-25T02:33:15;3.03;;;2.08;;
21810;SDS011;11067;48.788;9.208;2023-04-25T02:35:41;2.47;;;2.00;;
21810;SDS011;11067;48.788;9.208;2023-04-25T02:38:07;3.90;;;2.20;;
21810;SDS011;11067;48.788;9.208;2023-04-25T02:40:33;3.83;;;2.00;;
21810;SDS011;11067;48.788;9.208;2023-04-25T02:42:58;2.40;;;2.03;;
21810;SDS011;11067;48.788;9.208;2023-04-25T02:45:24;2.33;;;1.93;;
21810;SDS011;11067;48.788;9.208;2023-04-25T02:47:49;2.40;;;1.80;;
21810;SDS011;11067;48.788;9.208;2023-04-25T02:50:15;2.03;;;1.80;;
21810;SDS011;11067;48.788;9.208;2023-04-25T02:52:40;6.30;;;2.53;;
21810;SDS011;11067;48.788;9.208;2023-04-25T02:55:06;2.65;;;1.85;;
21810;SDS011;11067;48.788;9.208;2023-04-25T02:57:31;3.85;;;1.90;;
21810;SDS011;11067;48.788;9.208;2023-04-25T02:59:57;2.63;;;1.83;;
21810;SDS011;11067;48.788;9.208;2023-04-25T03:02:23;2.70;;;1.87;;
21810;SDS011;11067;48.788;9.208;2023-04-25T03:04:48;3.13;;;2.10;;
21810;SDS011;11067;48.788;9.208;2023-04-25T03:07:14;5.13;;;2.17;;
21810;SDS011;11067;48.788;9.208;2023-04-25T03:09:39;3.40;;;1.67;;
21810;SDS011;11067;48.788;9.208;2023-04-25T03:12:05;3.83;;;1.70;;
21810;SDS011;11067;48.788;9.208;2023-04-25T03:14:30;2.90;;;1.80;;
21810;SDS011;11067;48.788;9.208;2023-04-25T03:16:56;2.28;;;1.90;;
21810;SDS011;11067;48.788;9.208;2023-04-25T03:19:22;2.30;;;1.73;;
21810;SDS011;11067;48.788;9.208;2023-04-25T03:21:47;3.53;;;1.77;;
21810;SDS011;11067;48.788;9.208;2023-04-25T03:24:13;2.50;;;2.00;;
21810;SDS011;11067;48.788;9.208;2023-04-25T03:26:38;3.00;;;1.87;;
21810;SDS011;11067;48.788;9.208;2023-04-25T03:29:04;3.47;;;1.90;;
21810;SDS011;11067;48.788;9.208;2023-04-25T03:31:30;2.28;;;1.75;;
21810;SDS011;11067;48.788;9.208;2023-04-25T03:33:56;3.60;;;1.80;;
21810;SDS011;11067;48.788;9.208;2023-04-25T03:36:21;1.93;;;1.77;;
21810;SDS011;11067;48.788;9.208;2023-04-25T03:38:47;3.23;;;1.80;;
21810;SDS011;11067;48.788;9.208;2023-04-25T03:41:13;2.00;;;1.60;;
21810;SDS011;11067;48.788;9.208;2023-04-25T03:43:39;3.17;;;1.77;;
21810;SDS011;11067;48.788;9.208;2023-04-25T03:46:04;2.63;;;2.00;;
21810;SDS011;11067;48.788;9.208;2023-04-25T03:48:30;2.80;;;1.60;;
21810;SDS011;11067;48.788;9.208;2023-04-25T03:50:55;1.75;;;1.40;;
21810;SDS011;11067;48.788;9.208;2023-04-25T03:53:21;2.30;;;1.70;;
21810;SDS011;11067;48.788;9.208;2023-04-25T03:55:46;3.13;;;1.97;;
21810;SDS011;11067;48.788;9.208;2023-04-25T03:58:12;2.53;;;1.90;;
21810;SDS011;11067;48.788;9.208;2023-04-25T04:00:38;4.43;;;1.70;;
21810;SDS011;11067;48.788;9.208;2023-04-25T04:03:03;3.65;;;2.10;;
21810;SDS011;11067;48.788;9.208;2023-04-25T04:05:29;2.37;;;1.50;;
21810;SDS011;11067;48.788;9.208;2023-04-25T04:07:54;4.03;;;2.07;;
21810;SDS011;11067;48.788;9.208;2023-04-25T04:10:20;4.40;;;1.88;;
21810;SDS011;11067;48.788;9.208;2023-04-25T04:12:46;3.50;;;2.38;;
21810;SDS011;11067;48.788;9.208;2023-04-25T04:15:11;4.03;;;1.90;;
21810;SDS011;11067;48.788;9.208;2023-04-25T04:17:37;7.20;;;2.20;;
21810;SDS011;11067;48.788;9.208;2023-04-25T04:20:03;3.10;;;2.00;;
21810;SDS011;11067;48.788;9.208;2023-04-25T04:22:30;6.60;;;2.70;;
21810;SDS011;11067;48.788;9.208;2023-04-25T04:24:56;3.43;;;2.30;;
21810;SDS011;11067;48.788;9.208;2023-04-25T04:27:22;2.57;;;1.80;;
21810;SDS011;11067;48.788;9.208;2023-04-25T04:29:48;2.33;;;2.00;;
21810;SDS011;11067;48.788;9.208;2023-04-25T04:32:14;3.57;;;2.40;;
21810;SDS011;11067;48.788;9.208;2023-04-25T04:34:40;6.73;;;2.30;;
21810;SDS011;11067;48.788;9.208;2023-04-25T04:37:06;3.67;;;2.50;;
21810;SDS011;11067;48.788;9.208;2023-04-25T04:39:32;3.80;;;2.17;;
21810;SDS011;11067;48.788;9.208;2023-04-25T04:41:58;2.90;;;2.20;;
21810;SDS011;11067;48.788;9.208;2023-04-25T04:44:24;3.53;;;2.50;;
21810;SDS011;11067;48.788;9.208;2023-04-25T04:46:50;3.87;;;2.60;;
21810;SDS011;11067;48.788;9.208;2023-04-25T04:49:16;6.32;;;2.53;;
21810;SDS011;11067;48.788;9.208;2023-04-25T04:51:42;4.07;;;2.50;;
21810;SDS011;11067;48.788;9.208;2023-04-25T04:54:11;8.50;;;2.63;;
21810;SDS011;11067;48.788;9.208;2023-04-25T04:56:37;6.40;;;2.70;;
21810;SDS011;11067;48.788;9.208;2023-04-25T04:59:03;3.83;;;2.22;;
21810;SDS011;11067;48.788;9.208;2023-04-25T05:01:28;2.63;;;2.28;;
21810;SDS011;11067;48.788;9.208;2023-04-25T05:03:55;5.28;;;2.80;;
21810;SDS011;11067;48.788;9.208;2023-04-25T05:06:25;3.60;;;2.38;;
21810;SDS011;11067;48.788;9.208;2023-04-25T05:08:51;3.45;;;2.53;;
21810;SDS011;11067;48.788;9.208;2023-04-25T05:11:17;4.60;;;2.08;;
21810;SDS011;11067;48.788;9.208;2023-04-25T05:13:44;3.95;;;2.20;;
21810;SDS011;11067;48.788;9.208;2023-04-25T05:16:10;11.63;;;2.65;;
21810;SDS011;11067;48.788;9.208;2023-04-25T05:18:36;3.47;;;1.90;;
21810;SDS011;11067;48.788;9.208;2023-04-25T05:21:02;5.07;;;2.40;;
21810;SDS011;11067;48.788;9.208;2023-04-25T05:23:28;4.17;;;2.47;;
21810;SDS011;11067;48.788;9.208;2023-04-25T05:25:55;4.18;;;2.55;;
21810;SDS011;11067;48.788;9.208;2023-04-25T05:28:20;3.08;;;2.30;;
21810;SDS011;11067;48.788;9.208;2023-04-25T05:30:46;4.88;;;2.85;;
21810;SDS011;11067;48.788;9.208;2023-04-25T05:33:12;4.57;;;2.67;;
21810;SDS011;11067;48.788;9.208;2023-04-25T05:35:37;3.80;;;2.30;;
21810;SDS011;11067;48.788;9.208;2023-04-25T05:38:03;5.00;;;2.97;;
21810;SDS011;11067;48.788;9.208;2023-04-25T05:40:28;3.30;;;2.30;;
21810;SDS011;11067;48.788;9.208;2023-04-25T05:42:54;2.72;;;2.17;;
21810;SDS011;11067;48.788;9.208;2023-04-25T05:45:20;3.95;;;2.50;;
21810;SDS011;11067;48.788;9.208;2023-04-25T05:47:45;2.90;;;2.30;;
21810;SDS011;11067;48.788;9.208;2023-04-25T05:50:11;3.70;;;2.40;;
21810;SDS011;11067;48.788;9.208;2023-04-25T05:52:36;2.88;;;2.42;;
21810;SDS011;11067;48.788;9.208;2023-04-25T05:55:02;3.17;;;2.20;;
21810;SDS011;11067;48.788;9.208;2023-04-25T05:57:27;3.87;;;2.70;;
21810;SDS011;11067;48.788;9.208;2023-04-25T05:59:53;4.73;;;2.00;;
21810;SDS011;11067;48.788;9.208;2023-04-25T06:02:19;4.10;;;2.58;;
21810;SDS011;11067;48.788;9.208;2023-04-25T06:04:46;2.70;;;2.20;;
21810;SDS011;11067;48.788;9.208;2023-04-25T06:07:13;5.37;;;2.60;;
21810;SDS011;11067;48.788;9.208;2023-04-25T06:09:38;4.30;;;2.47;;
21810;SDS011;11067;48.788;9.208;2023-04-25T06:12:05;4.35;;;2.58;;
21810;SDS011;11067;48.788;9.208;2023-04-25T06:14:31;5.97;;;2.55;;
21810;SDS011;11067;48.788;9.208;2023-04-25T06:16:56;5.23;;;2.60;;
21810;SDS011;11067;48.788;9.208;2023-04-25T06:19:22;4.05;;;2.70;;
21810;SDS011;11067;48.788;9.208;2023-04-25T06:21:48;4.47;;;2.63;;
21810;SDS011;11067;48.788;9.208;2023-04-25T06:24:13;3.80;;;2.17;;
21810;SDS011;11067;48.788;9.208;2023-04-25T06:26:39;4.67;;;1.97;;
21810;SDS011;11067;48.788;9.208;2023-04-25T06:29:04;3.35;;;1.92;;
21810;SDS011;11067;48.788;9.208;2023-04-25T06:31:30;2.50;;;1.80;;
21810;SDS011;11067;48.788;9.208;2023-04-25T06:33:57;4.55;;;2.03;;
21810;SDS011;11067;48.788;9.208;2023-04-25T06:36:23;2.67;;;2.15;;
21810;SDS011;11067;48.788;9.208;2023-04-25T06:38:51;4.27;;;2.10;;
21810;SDS011;11067;48.788;9.208;2023-04-25T06:41:17;2.70;;;2.00;;
21810;SDS011;11067;48.788;9.208;2023-04-25T06:43:43;3.38;;;1.90;;
21810;SDS011;11067;48.788;9.208;2023-04-25T06:46:09;3.93;;;2.20;;
21810;SDS011;11067;48.788;9.208;2023-04-25T06:48:34;3.03;;;2.10;;
21810;SDS011;11067;48.788;9.208;2023-04-25T06:51:00;2.53;;;1.80;;
21810;SDS011;11067;48.788;9.208;2023-04-25T06:53:26;2.33;;;2.13;;
21810;SDS011;11067;48.788;9.208;2023-04-25T06:55:51;2.13;;;1.90;;
21810;SDS011;11067;48.788;9.208;2023-04-25T06:58:17;4.23;;;2.20;;
21810;SDS011;11067;48.788;9.208;2023-04-25T07:00:43;2.70;;;2.00;;
21810;SDS011;11067;48.788;9.208;2023-04-25T07:03:08;3.83;;;2.00;;
21810;SDS011;11067;48.788;9.208;2023-04-25T07:05:34;2.45;;;1.90;;
21810;SDS011;11067;48.788;9.208;2023-04-25T07:08:00;2.40;;;2.00;;
21810;SDS011;11067;48.788;9.208;2023-04-25T07:10:26;3.13;;;2.07;;
21810;SDS011;11067;48.788;9.208;2023-04-25T07:12:51;2.55;;;2.17;;
21810;SDS011;11067;48.788;9.208;2023-04-25T07:15:17;2.70;;;1.80;;
21810;SDS011;11067;48.788;9.208;2023-04-25T07:17:42;3.40;;;2.13;;
21810;SDS011;11067;48.788;9.208;2023-04-25T07:20:08;2.58;;;2.20;;
21810;SDS011;11067;48.788;9.208;2023-04-25T07:22:35;4.13;;;2.47;;
21810;SDS011;11067;48.788;9.208;2023-04-25T07:25:00;3.28;;;2.40;;
21810;SDS011;11067;48.788;9.208;2023-04-25T07:27:26;3.57;;;2.80;;
21810;SDS011;11067;48.788;9.208;2023-04-25T07:29:52;3.30;;;2.63;;
21810;SDS011;11067;48.788;9.208;2023-04-25T07:32:17;3.67;;;3.00;;
21810;SDS011;11067;48.788;9.208;2023-04-25T07:34:43;3.10;;;2.67;;
21810;SDS011;11067;48.788;9.208;2023-04-25T07:37:09;4.20;;;3.03;;
21810;SDS011;11067;48.788;9.208;2023-04-25T07:39:34;4.40;;;3.13;;
21810;SDS011;11067;48.788;9.208;2023-04-25T07:42:00;3.53;;;3.00;;
21810;SDS011;11067;48.788;9.208;2023-04-25T07:44:27;4.57;;;3.33;;
21810;SDS011;11067;48.788;9.208;2023-04-25T07:46:52;4.37;;;3.10;;
21810;SDS011;11067;48.788;9.208;2023-04-25T07:49:18;6.10;;;3.47;;
21810;SDS011;11067;48.788;9.208;2023-04-25T07:51:44;8.73;;;3.50;;
21810;SDS011;11067;48.788;9.208;2023-04-25T07:54:12;4.85;;;3.10;;
21810;SDS011;11067;48.788;9.208;2023-04-25T07:56:38;4.43;;;3.03;;
21810;SDS011;11067;48.788;9.208;2023-04-25T07:59:04;5.00;;;3.40;;
21810;SDS011;11067;48.788;9.208;2023-04-25T08:01:30;4.75;;;3.42;;
21810;SDS011;11067;48.788;9.208;2023-04-25T08:03:55;7.13;;;3.42;;
21810;SDS011;11067;48.788;9.208;2023-04-25T08:06:21;6.23;;;3.57;;
21810;SDS011;11067;48.788;9.208;2023-04-25T08:08:46;5.33;;;3.23;;
21810;SDS011;11067;48.788;9.208;2023-04-25T08:11:12;5.30;;;3.80;;
21810;SDS011;11067;48.788;9.208;2023-04-25T08:13:37;5.13;;;3.22;;
21810;SDS011;11067;48.788;9.208;2023-04-25T08:16:03;5.13;;;3.53;;
21810;SDS011;11067;48.788;9.208;2023-04-25T08:18:29;5.00;;;3.30;;
21810;SDS011;11067;48.788;9.208;2023-04-25T08:20:55;4.78;;;3.30;;
21810;SDS011;11067;48.788;9.208;2023-04-25T08:23:21;4.68;;;3.38;;
21810;SDS011;11067;48.788;9.208;2023-04-25T08:25:46;4.73;;;3.27;;
21810;SDS011;11067;48.788;9.208;2023-04-25T08:28:12;4.17;;;3.50;;
21810;SDS011;11067;48.788;9.208;2023-04-25T08:30:37;7.10;;;3.95;;
21810;SDS011;11067;48.788;9.208;2023-04-25T08:33:03;5.75;;;3.33;;
21810;SDS011;11067;48.788;9.208;2023-04-25T08:35:28;5.13;;;3.47;;
21810;SDS011;11067;48.788;9.208;2023-04-25T08:37:54;4.80;;;3.37;;
21810;SDS011;11067;48.788;9.208;2023-04-25T08:40:20;7.70;;;3.40;;
21810;SDS011;11067;48.788;9.208;2023-04-25T08:42:53;4.53;;;3.55;;
21810;SDS011;11067;48.788;9.208;2023-04-25T08:45:20;4.82;;;3.20;;
21810;SDS011;11067;48.788;9.208;2023-04-25T08:47:46;4.13;;;3.20;;
21810;SDS011;11067;48.788;9.208;2023-04-25T08:50:14;5.13;;;3.23;;
21810;SDS011;11067;48.788;9.208;2023-04-25T08:52:43;5.43;;;3.57;;
21810;SDS011;11067;48.788;9.208;2023-04-25T08:55:11;5.38;;;3.50;;
21810;SDS011;11067;48.788;9.208;2023-04-25T08:57:39;4.20;;;2.88;;
21810;SDS011;11067;48.788;9.208;2023-04-25T09:00:07;4.93;;;3.53;;
21810;SDS011;11067;48.788;9.208;2023-04-25T09:02:34;5.57;;;3.27;;
21810;SDS011;11067;48.788;9.208;2023-04-25T09:05:00;4.45;;;3.30;;
21810;SDS011;11067;48.788;9.208;2023-04-25T09:07:29;5.78;;;3.45;;
21810;SDS011;11067;48.788;9.208;2023-04-25T09:09:54;5.40;;;3.80;;
21810;SDS011;11067;48.788;9.208;2023-04-25T09:12:20;6.27;;;3.47;;
21810;SDS011;11067;48.788;9.208;2023-04-25T09:15:05;5.55;;;3.65;;
21810;SDS011;11067;48.788;9.208;2023-04-25T09:17:35;4.33;;;3.50;;
21810;SDS011;11067;48.788;9.208;2023-04-25T09:20:09;4.10;;;3.10;;
21810;SDS011;11067;48.788;9.208;2023-04-25T09:22:37;4.90;;;3.65;;
21810;SDS011;11067;48.788;9.208;2023-04-25T09:25:04;6.07;;;3.73;;
21810;SDS011;11067;48.788;9.208;2023-04-25T09:27:34;5.90;;;3.35;;
21810;SDS011;11067;48.788;9.208;2023-04-25T09:29:59;5.93;;;3.63;;
21810;SDS011;11067;48.788;9.208;2023-04-25T09:32:26;4.47;;;3.67;;
21810;SDS011;11067;48.788;9.208;2023-04-25T09:34:52;3.88;;;3.03;;
21810;SDS011;11067;48.788;9.208;2023-04-25T09:37:20;4.93;;;3.20;;
21810;SDS011;11067;48.788;9.208;2023-04-25T09:39:48;4.65;;;3.50;;
21810;SDS011;11067;48.788;9.208;2023-04-25T09:42:16;5.65;;;3.63;;
21810;SDS011;11067;48.788;9.208;2023-04-25T09:44:42;5.85;;;4.00;;
21810;SDS011;11067;48.788;9.208;2023-04-25T09:47:12;6.57;;;3.43;;
21810;SDS011;11067;48.788;9.208;2023-04-25T09:49:40;5.90;;;3.10;;
21810;SDS011;11067;48.788;9.208;2023-04-25T09:52:07;6.35;;;3.60;;
21810;SDS011;11067;48.788;9.208;2023-04-25T09:54:33;5.87;;;3.47;;
21810;SDS011;11067;48.788;9.208;2023-04-25T09:56:59;6.97;;;3.90;;
21810;SDS011;11067;48.788;9.208;2023-04-25T09:59:48;4.45;;;3.22;;
21810;SDS011;11067;48.788;9.208;2023-04-25T10:02:15;3.95;;;2.42;;
21810;SDS011;11067;48.788;9.208;2023-04-25T10:04:44;2.60;;;2.05;;
21810;SDS011;11067;48.788;9.208;2023-04-25T10:07:12;2.58;;;1.98;;
21810;SDS011;11067;48.788;9.208;2023-04-25T10:09:39;3.50;;;2.30;;
21810;SDS011;11067;48.788;9.208;2023-04-25T10:12:06;4.10;;;2.10;;
21810;SDS011;11067;48.788;9.208;2023-04-25T10:14:32;2.67;;;2.10;;
21810;SDS011;11067;48.788;9.208;2023-04-25T10:16:59;3.10;;;2.00;;
21810;SDS011;11067;48.788;9.208;2023-04-25T10:19:26;5.15;;;2.28;;
21810;SDS011;11067;48.788;9.208;2023-04-25T10:22:01;3.20;;;2.42;;
21810;SDS011;11067;48.788;9.208;2023-04-25T10:24:30;3.45;;;2.17;;
21810;SDS011;11067;48.788;9.208;2023-04-25T10:26:57;3.15;;;2.50;;
21810;SDS011;11067;48.788;9.208;2023-04-25T10:29:26;3.08;;;2.47;;
21810;SDS011;11067;48.788;9.208;2023-04-25T10:31:52;3.50;;;2.50;;
21810;SDS011;11067;48.788;9.208;2023-04-25T10:34:18;5.82;;;3.22;;
21810;SDS011;11067;48.788;9.208;2023-04-25T10:36:49;5.57;;;3.20;;
21810;SDS011;11067;48.788;9.208;2023-04-25T10:39:21;4.22;;;2.95;;
21810;SDS011;11067;48.788;9.208;2023-04-25T10:41:48;4.75;;;3.20;;
21810;SDS011;11067;48.788;9.208;2023-04-25T10:44:18;3.92;;;2.15;;
21810;SDS011;11067;48.788;9.208;2023-04-25T10:46:44;2.05;;;1.80;;
21810;SDS011;11067;48.788;9.208;2023-04-25T10:49:10;3.60;;;2.20;;
21810;SDS011;11067;48.788;9.208;2023-04-25T10:51:58;2.33;;;1.90;;
21810;SDS011;11067;48.788;9.208;2023-04-25T10:54:51;3.67;;;2.50;;
21810;SDS011;11067;48.788;9.208;2023-04-25T10:59:54;4.95;;;2.80;;
21810;SDS011;11067;48.788;9.208;2023-04-25T11:02:55;5.88;;;3.63;;
21810;SDS011;11067;48.788;9.208;2023-04-25T11:05:30;5.60;;;3.80;;
21810;SDS011;11067;48.788;9.208;2023-04-25T11:07:57;2.70;;;1.90;;
21810;SDS011;11067;48.788;9.208;2023-04-25T11:10:27;2.85;;;1.90;;
21810;SDS011;11067;48.788;9.208;2023-04-25T11:12:57;2.80;;;2.13;;
21810;SDS011;11067;48.788;9.208;2023-04-25T11:15:23;3.58;;;2.38;;
21810;SDS011;11067;48.788;9.208;2023-04-25T11:17:53;2.58;;;2.13;;
21810;SDS011;11067;48.788;9.208;2023-04-25T11:20:19;3.08;;;2.25;;
21810;SDS011;11067;48.788;9.208;2023-04-25T11:22:46;4.10;;;2.60;;
21810;SDS011;11067;48.788;9.208;2023-04-25T11:25:12;2.67;;;2.17;;
21810;SDS011;11067;48.788;9.208;2023-04-25T11:27:52;4.25;;;2.25;;
21810;SDS011;11067;48.788;9.208;2023-04-25T11:30:20;3.30;;;2.20;;
21810;SDS011;11067;48.788;9.208;2023-04-25T11:32:46;3.97;;;2.38;;
21810;SDS011;11067;48.788;9.208;2023-04-25T11:35:12;4.30;;;2.63;;
21810;SDS011;11067;48.788;9.208;2023-04-25T11:37:41;3.88;;;2.80;;
21810;SDS011;11067;48.788;9.208;2023-04-25T11:40:07;3.97;;;2.83;;
21810;SDS011;11067;48.788;9.208;2023-04-25T11:42:36;4.53;;;2.92;;
21810;SDS011;11067;48.788;9.208;2023-04-25T11:45:08;4.80;;;2.50;;
21810;SDS011;11067;48.788;9.208;2023-04-25T11:47:34;3.58;;;2.60;;
21810;SDS011;11067;48.788;9.208;2023-04-25T11:50:01;3.05;;;2.40;;
21810;SDS011;11067;48.788;9.208;2023-04-25T11:52:46;3.53;;;2.30;;
21810;SDS011;11067;48.788;9.208;2023-04-25T11:55:13;3.70;;;2.50;;
21810;SDS011;11067;48.788;9.208;2023-04-25T11:57:40;3.17;;;2.20;;
21810;SDS011;11067;48.788;9.208;2023-04-25T12:00:08;3.53;;;2.38;;
21810;SDS011;11067;48.788;9.208;2023-04-25T12:02:36;4.37;;;2.80;;
21810;SDS011;11067;48.788;9.208;2023-04-25T12:05:06;4.47;;;2.40;;
21810;SDS011;11067;48.788;9.208;2023-04-25T12:07:33;4.13;;;2.90;;
21810;SDS011;11067;48.788;9.208;2023-04-25T12:09:59;3.55;;;3.22;;
21810;SDS011;11067;48.788;9.208;2023-04-25T12:12:33;4.93;;;2.67;;
21810;SDS011;11067;48.788;9.208;2023-04-25T12:15:12;5.30;;;3.50;;
21810;SDS011;11067;48.788;9.208;2023-04-25T12:17:40;4.18;;;2.95;;
21810;SDS011;11067;48.788;9.208;2023-04-25T12:20:08;6.22;;;3.25;;
21810;SDS011;11067;48.788;9.208;2023-04-25T12:22:35;4.88;;;3.40;;
21810;SDS011;11067;48.788;9.208;2023-04-25T12:25:01;5.97;;;3.40;;
21810;SDS011;11067;48.788;9.208;2023-04-25T12:27:30;8.18;;;4.13;;
21810;SDS011;11067;48.788;9.208;2023-04-25T12:29:56;4.18;;;3.40;;
21810;SDS011;11067;48.788;9.208;2023-04-25T12:32:22;4.68;;;3.20;;
21810;SDS011;11067;48.788;9.208;2023-04-25T12:34:48;5.10;;;3.60;;
21810;SDS011;11067;48.788;9.208;2023-04-25T12:37:14;6.37;;;3.70;;
21810;SDS011;11067;48.788;9.208;2023-04-25T12:39:40;6.57;;;4.03;;
21810;SDS011;11067;48.788;9.208;2023-04-25T12:42:06;6.90;;;4.10;;
21810;SDS011;11067;48.788;9.208;2023-04-25T12:44:32;8.13;;;3.93;;
21810;SDS011;11067;48.788;9.208;2023-04-25T12:46:58;7.25;;;4.97;;
21810;SDS011;11067;48.788;9.208;2023-04-25T12:49:24;5.80;;;4.32;;
21810;SDS011;11067;48.788;9.208;2023-04-25T12:51:50;7.05;;;3.90;;
21810;SDS011;11067;48.788;9.208;2023-04-25T12:54:16;7.80;;;4.50;;
21810;SDS011;11067;48.788;9.208;2023-04-25T12:56:42;6.13;;;4.25;;
21810;SDS011;11067;48.788;9.208;2023-04-25T12:59:08;7.85;;;4.32;;
21810;SDS011;11067;48.788;9.208;2023-04-25T13:01:34;6.57;;;4.20;;
21810;SDS011;11067;48.788;9.208;2023-04-25T13:04:00;6.13;;;4.17;;
21810;SDS011;11067;48.788;9.208;2023-04-25T13:06:25;11.10;;;4.63;;
21810;SDS011;11067;48.788;9.208;2023-04-25T13:08:51;5.90;;;4.10;;
21810;SDS011;11067;48.788;9.208;2023-04-25T13:11:16;7.50;;;4.90;;
21810;SDS011;11067;48.788;9.208;2023-04-25T13:13:43;7.10;;;4.13;;
21810;SDS011;11067;48.788;9.208;2023-04-25T13:16:09;8.93;;;4.00;;
21810;SDS011;11067;48.788;9.208;2023-04-25T13:18:34;6.30;;;3.85;;
21810;SDS011;11067;48.788;9.208;2023-04-25T13:21:00;5.82;;;3.75;;
21810;SDS011;11067;48.788;9.208;2023-04-25T13:23:27;6.82;;;4.18;;
21810;SDS011;11067;48.788;9.208;2023-04-25T13:25:53;6.13;;;3.80;;
21810;SDS011;11067;48.788;9.208;2023-04-25T13:28:20;9.52;;;4.80;;
21810;SDS011;11067;48.788;9.208;2023-04-25T13:30:46;5.68;;;4.30;;
21810;SDS011;11067;48.788;9.208;2023-04-25T13:33:13;6.93;;;4.68;;
21810;SDS011;11067;48.788;9.208;2023-04-25T13:35:39;6.53;;;4.68;;
21810;SDS011;11067;48.788;9.208;2023-04-25T13:38:06;6.20;;;4.20;;
21810;SDS011;11067;48.788;9.208;2023-04-25T13:40:31;6.10;;;3.97;;
21810;SDS011;11067;48.788;9.208;2023-04-25T13:42:57;10.00;;;5.00;;
21810;SDS011;11067;48.788;9.208;2023-04-25T13:45:23;8.50;;;5.50;;
21810;SDS011;11067;48.788;9.208;2023-04-25T13:47:49;7.97;;;5.38;;
21810;SDS011;11067;48.788;9.208;2023-04-25T13:50:15;6.37;;;4.73;;
21810;SDS011;11067;48.788;9.208;2023-04-25T13:52:41;8.70;;;5.65;;
21810;SDS011;11067;48.788;9.208;2023-04-25T13:55:07;9.55;;;6.03;;
21810;SDS011;11067;48.788;9.208;2023-04-25T13:57:33;9.57;;;6.15;;
21810;SDS011;11067;48.788;9.208;2023-04-25T14:00:00;11.73;;;7.32;;
21810;SDS011;11067;48.788;9.208;2023-04-25T14:02:29;10.77;;;6.40;;
21810;SDS011;11067;48.788;9.208;2023-04-25T14:04:55;9.90;;;5.95;;
21810;SDS011;11067;48.788;9.208;2023-04-25T14:07:21;9.37;;;6.80;;
21810;SDS011;11067;48.788;9.208;2023-04-25T14:09:46;8.47;;;5.93;;
21810;SDS011;11067;48.788;9.208;2023-04-25T14:12:12;9.65;;;5.43;;
21810;SDS011;11067;48.788;9.208;2023-04-25T14:14:37;8.67;;;5.57;;
21810;SDS011;11067;48.788;9.208;2023-04-25T14:17:03;10.80;;;5.90;;
21810;SDS011;11067;48.788;9.208;2023-04-25T14:19:29;8.33;;;5.80;;
21810;SDS011;11067;48.788;9.208;2023-04-25T14:21:54;6.70;;;4.90;;
21810;SDS011;11067;48.788;9.208;2023-04-25T14:24:20;9.20;;;5.43;;
21810;SDS011;11067;48.788;9.208;2023-04-25T14:26:46;9.30;;;5.43;;
21810;SDS011;11067;48.788;9.208;2023-04-25T14:29:11;12.07;;;5.90;;
21810;SDS011;11067;48.788;9.208;2023-04-25T14:31:37;7.10;;;4.70;;
21810;SDS011;11067;48.788;9.208;2023-04-25T14:34:04;8.10;;;5.20;;
21810;SDS011;11067;48.788;9.208;2023-04-25T14:36:30;7.20;;;4.80;;
21810;SDS011;11067;48.788;9.208;2023-04-25T14:38:59;6.93;;;4.22;;
21810;SDS011;11067;48.788;9.208;2023-04-25T14:41:25;6.90;;;4.20;;
21810;SDS011;11067;48.788;9.208;2023-04-25T14:43:51;5.68;;;4.22;;
21810;SDS011;11067;48.788;9.208;2023-04-25T14:46:18;6.53;;;4.47;;
21810;SDS011;11067;48.788;9.208;2023-04-25T14:48:44;5.13;;;3.60;;